sensor_id;sensor_type;location;lat;lon;timestamp;P1;durP1;ratioP1;P2;durP2;ratioP2
6089;SDS011;3073;42.660;23.316;2023-01-19T00:00:26;41.43;;;6.13;;
6089;SDS011;3073;42.660;23.316;2023-01-19T00:02:54;43.63;;;5.17;;
6089;SDS011;3073;42.660;23.316;2023-01-19T00:05:21;29.43;;;4.13;;
6089;SDS011;3073;42.660;23.316;2023-01-19T00:07:48;37.10;;;5.80;;
6089;SDS011;3073;42.660;23.316;2023-01-19T00:10:16;35.30;;;5.17;;
6089;SDS011;3073;42.660;23.316;2023-01-19T00:12:43;42.47;;;4.97;;
6089;SDS011;3073;42.660;23.316;2023-01-19T00:15:10;31.50;;;4.80;;
6089;SDS011;3073;42.660;23.316;2023-01-19T00:17:37;22.40;;;4.27;;
6089;SDS011;3073;42.660;23.316;2023-01-19T00:20:10;40.30;;;5.43;;
6089;SDS011;3073;42.660;23.316;2023-01-19T00:22:37;31.27;;;4.67;;
6089;SDS011;3073;42.660;23.316;2023-01-19T00:25:05;28.07;;;4.47;;
6089;SDS011;3073;42.660;23.316;2023-01-19T00:27:33;47.07;;;6.60;;
6089;SDS011;3073;42.660;23.316;2023-01-19T00:30:00;22.10;;;4.60;;
6089;SDS011;3073;42.660;23.316;2023-01-19T00:32:27;34.03;;;5.60;;
6089;SDS011;3073;42.660;23.316;2023-01-19T00:34:54;30.40;;;3.57;;
6089;SDS011;3073;42.660;23.316;2023-01-19T00:37:23;35.57;;;5.37;;
6089;SDS011;3073;42.660;23.316;2023-01-19T00:39:50;45.07;;;6.50;;
6089;SDS011;3073;42.660;23.316;2023-01-19T00:42:17;29.00;;;3.90;;
6089;SDS011;3073;42.660;23.316;2023-01-19T00:45:01;38.67;;;5.00;;
6089;SDS011;3073;42.660;23.316;2023-01-19T00:47:29;33.63;;;5.37;;
6089;SDS011;3073;42.660;23.316;2023-01-19T00:49:56;46.30;;;5.10;;
6089;SDS011;3073;42.660;23.316;2023-01-19T00:52:24;26.20;;;4.97;;
6089;SDS011;3073;42.660;23.316;2023-01-19T00:54:51;39.10;;;6.30;;
6089;SDS011;3073;42.660;23.316;2023-01-19T00:57:18;35.73;;;4.33;;
6089;SDS011;3073;42.660;23.316;2023-01-19T00:59:45;41.77;;;6.53;;
6089;SDS011;3073;42.660;23.316;2023-01-19T01:02:11;35.40;;;5.77;;
6089;SDS011;3073;42.660;23.316;2023-01-19T01:04:39;50.77;;;5.80;;
6089;SDS011;3073;42.660;23.316;2023-01-19T01:07:06;41.40;;;4.87;;
6089;SDS011;3073;42.660;23.316;2023-01-19T01:09:34;41.13;;;6.30;;
6089;SDS011;3073;42.660;23.316;2023-01-19T01:12:01;29.63;;;4.73;;
6089;SDS011;3073;42.660;23.316;2023-01-19T01:14:28;37.37;;;4.50;;
6089;SDS011;3073;42.660;23.316;2023-01-19T01:16:55;31.33;;;3.97;;
6089;SDS011;3073;42.660;23.316;2023-01-19T01:19:22;44.60;;;4.40;;
6089;SDS011;3073;42.660;23.316;2023-01-19T01:21:49;26.77;;;3.77;;
6089;SDS011;3073;42.660;23.316;2023-01-19T01:24:16;43.23;;;5.73;;
6089;SDS011;3073;42.660;23.316;2023-01-19T01:26:46;45.47;;;5.33;;
6089;SDS011;3073;42.660;23.316;2023-01-19T01:29:13;35.23;;;4.17;;
6089;SDS011;3073;42.660;23.316;2023-01-19T01:31:39;36.70;;;6.10;;
6089;SDS011;3073;42.660;23.316;2023-01-19T01:34:06;36.87;;;4.90;;
6089;SDS011;3073;42.660;23.316;2023-01-19T01:36:33;41.73;;;4.63;;
6089;SDS011;3073;42.660;23.316;2023-01-19T01:39:00;22.37;;;4.37;;
6089;SDS011;3073;42.660;23.316;2023-01-19T01:41:27;41.60;;;5.77;;
6089;SDS011;3073;42.660;23.316;2023-01-19T01:43:56;32.37;;;4.80;;
6089;SDS011;3073;42.660;23.316;2023-01-19T01:46:27;27.53;;;4.30;;
6089;SDS011;3073;42.660;23.316;2023-01-19T01:48:58;28.13;;;3.90;;
6089;SDS011;3073;42.660;23.316;2023-01-19T01:51:31;20.87;;;3.00;;
6089;SDS011;3073;42.660;23.316;2023-01-19T01:54:04;41.67;;;5.37;;
6089;SDS011;3073;42.660;23.316;2023-01-19T01:56:41;37.80;;;4.77;;
6089;SDS011;3073;42.660;23.316;2023-01-19T01:59:14;18.17;;;3.47;;
6089;SDS011;3073;42.660;23.316;2023-01-19T02:01:50;32.23;;;4.00;;
6089;SDS011;3073;42.660;23.316;2023-01-19T02:04:34;26.17;;;3.70;;
6089;SDS011;3073;42.660;23.316;2023-01-19T02:07:02;30.30;;;4.43;;
6089;SDS011;3073;42.660;23.316;2023-01-19T02:09:46;35.00;;;5.00;;
6089;SDS011;3073;42.660;23.316;2023-01-19T02:12:31;25.60;;;3.77;;
6089;SDS011;3073;42.660;23.316;2023-01-19T02:15:17;21.87;;;3.27;;
6089;SDS011;3073;42.660;23.316;2023-01-19T02:17:46;36.30;;;5.40;;
6089;SDS011;3073;42.660;23.316;2023-01-19T02:20:14;18.43;;;3.57;;
6089;SDS011;3073;42.660;23.316;2023-01-19T02:22:44;30.97;;;4.20;;
6089;SDS011;3073;42.660;23.316;2023-01-19T02:25:15;23.03;;;4.37;;
6089;SDS011;3073;42.660;23.316;2023-01-19T02:27:44;31.90;;;4.53;;
6089;SDS011;3073;42.660;23.316;2023-01-19T02:30:12;29.73;;;3.03;;
6089;SDS011;3073;42.660;23.316;2023-01-19T02:32:40;26.43;;;4.77;;
6089;SDS011;3073;42.660;23.316;2023-01-19T02:35:08;30.87;;;3.20;;
6089;SDS011;3073;42.660;23.316;2023-01-19T02:37:36;21.73;;;3.53;;
6089;SDS011;3073;42.660;23.316;2023-01-19T02:40:07;21.77;;;3.40;;
6089;SDS011;3073;42.660;23.316;2023-01-19T02:42:40;33.97;;;4.67;;
6089;SDS011;3073;42.660;23.316;2023-01-19T02:45:09;25.10;;;3.90;;
6089;SDS011;3073;42.660;23.316;2023-01-19T02:47:39;28.67;;;3.70;;
6089;SDS011;3073;42.660;23.316;2023-01-19T02:53:09;29.60;;;3.50;;
6089;SDS011;3073;42.660;23.316;2023-01-19T02:55:47;15.93;;;2.60;;
6089;SDS011;3073;42.660;23.316;2023-01-19T02:58:20;43.90;;;4.57;;
6089;SDS011;3073;42.660;23.316;2023-01-19T03:00:54;19.10;;;3.40;;
6089;SDS011;3073;42.660;23.316;2023-01-19T03:03:29;31.10;;;3.43;;
6089;SDS011;3073;42.660;23.316;2023-01-19T03:06:02;32.33;;;3.73;;
6089;SDS011;3073;42.660;23.316;2023-01-19T03:08:36;22.40;;;3.43;;
6089;SDS011;3073;42.660;23.316;2023-01-19T03:11:19;36.10;;;4.07;;
6089;SDS011;3073;42.660;23.316;2023-01-19T03:13:48;33.80;;;4.80;;
6089;SDS011;3073;42.660;23.316;2023-01-19T03:16:19;23.33;;;4.30;;
6089;SDS011;3073;42.660;23.316;2023-01-19T03:18:48;16.80;;;4.00;;
6089;SDS011;3073;42.660;23.316;2023-01-19T03:21:18;32.00;;;3.83;;
6089;SDS011;3073;42.660;23.316;2023-01-19T03:23:49;18.37;;;3.60;;
6089;SDS011;3073;42.660;23.316;2023-01-19T03:26:18;32.73;;;3.60;;
6089;SDS011;3073;42.660;23.316;2023-01-19T03:28:57;33.13;;;4.33;;
6089;SDS011;3073;42.660;23.316;2023-01-19T03:31:27;33.50;;;4.07;;
6089;SDS011;3073;42.660;23.316;2023-01-19T03:33:59;39.00;;;4.97;;
6089;SDS011;3073;42.660;23.316;2023-01-19T03:36:33;22.77;;;4.33;;
6089;SDS011;3073;42.660;23.316;2023-01-19T03:39:03;32.13;;;5.37;;
6089;SDS011;3073;42.660;23.316;2023-01-19T03:41:32;20.73;;;3.37;;
6089;SDS011;3073;42.660;23.316;2023-01-19T03:44:05;32.50;;;4.30;;
6089;SDS011;3073;42.660;23.316;2023-01-19T03:46:33;19.70;;;3.97;;
6089;SDS011;3073;42.660;23.316;2023-01-19T03:49:00;37.90;;;5.07;;
6089;SDS011;3073;42.660;23.316;2023-01-19T03:51:27;37.93;;;5.30;;
6089;SDS011;3073;42.660;23.316;2023-01-19T03:53:54;26.63;;;4.73;;
6089;SDS011;3073;42.660;23.316;2023-01-19T03:56:22;28.77;;;4.43;;
6089;SDS011;3073;42.660;23.316;2023-01-19T03:58:50;28.53;;;4.47;;
6089;SDS011;3073;42.660;23.316;2023-01-19T04:01:19;49.73;;;5.10;;
6089;SDS011;3073;42.660;23.316;2023-01-19T04:03:47;43.27;;;5.17;;
6089;SDS011;3073;42.660;23.316;2023-01-19T04:06:14;48.47;;;5.00;;
6089;SDS011;3073;42.660;23.316;2023-01-19T04:08:41;36.97;;;5.20;;
6089;SDS011;3073;42.660;23.316;2023-01-19T04:11:08;39.50;;;6.40;;
6089;SDS011;3073;42.660;23.316;2023-01-19T04:13:37;47.03;;;5.63;;
6089;SDS011;3073;42.660;23.316;2023-01-19T04:16:05;51.60;;;5.73;;
6089;SDS011;3073;42.660;23.316;2023-01-19T04:18:33;53.53;;;7.13;;
6089;SDS011;3073;42.660;23.316;2023-01-19T04:21:01;45.90;;;5.53;;
6089;SDS011;3073;42.660;23.316;2023-01-19T04:23:30;42.70;;;7.60;;
6089;SDS011;3073;42.660;23.316;2023-01-19T04:25:57;46.30;;;6.90;;
6089;SDS011;3073;42.660;23.316;2023-01-19T04:28:25;48.13;;;6.87;;
6089;SDS011;3073;42.660;23.316;2023-01-19T04:30:52;47.30;;;6.43;;
6089;SDS011;3073;42.660;23.316;2023-01-19T04:33:20;47.37;;;5.37;;
6089;SDS011;3073;42.660;23.316;2023-01-19T04:35:49;55.87;;;7.37;;
6089;SDS011;3073;42.660;23.316;2023-01-19T04:38:17;35.80;;;6.13;;
6089;SDS011;3073;42.660;23.316;2023-01-19T04:40:45;32.33;;;6.90;;
6089;SDS011;3073;42.660;23.316;2023-01-19T04:43:12;43.90;;;6.50;;
6089;SDS011;3073;42.660;23.316;2023-01-19T04:45:39;29.90;;;5.10;;
6089;SDS011;3073;42.660;23.316;2023-01-19T04:48:08;49.77;;;6.63;;
6089;SDS011;3073;42.660;23.316;2023-01-19T04:50:35;49.53;;;6.00;;
6089;SDS011;3073;42.660;23.316;2023-01-19T04:53:04;66.10;;;8.10;;
6089;SDS011;3073;42.660;23.316;2023-01-19T04:55:31;52.83;;;7.27;;
6089;SDS011;3073;42.660;23.316;2023-01-19T04:57:58;40.80;;;6.57;;
6089;SDS011;3073;42.660;23.316;2023-01-19T05:00:25;45.33;;;6.80;;
6089;SDS011;3073;42.660;23.316;2023-01-19T05:02:52;49.13;;;6.60;;
6089;SDS011;3073;42.660;23.316;2023-01-19T05:05:19;36.23;;;5.57;;
6089;SDS011;3073;42.660;23.316;2023-01-19T05:07:46;46.80;;;5.40;;
6089;SDS011;3073;42.660;23.316;2023-01-19T05:10:14;35.33;;;6.37;;
6089;SDS011;3073;42.660;23.316;2023-01-19T05:12:41;42.60;;;6.30;;
6089;SDS011;3073;42.660;23.316;2023-01-19T05:15:08;49.93;;;6.90;;
6089;SDS011;3073;42.660;23.316;2023-01-19T05:17:36;48.27;;;6.40;;
6089;SDS011;3073;42.660;23.316;2023-01-19T05:20:03;55.17;;;6.97;;
6089;SDS011;3073;42.660;23.316;2023-01-19T05:22:31;41.43;;;6.37;;
6089;SDS011;3073;42.660;23.316;2023-01-19T05:24:57;53.27;;;8.37;;
6089;SDS011;3073;42.660;23.316;2023-01-19T05:27:27;40.77;;;6.13;;
6089;SDS011;3073;42.660;23.316;2023-01-19T05:29:53;47.40;;;6.00;;
6089;SDS011;3073;42.660;23.316;2023-01-19T05:32:20;70.43;;;7.20;;
6089;SDS011;3073;42.660;23.316;2023-01-19T05:34:47;37.87;;;5.50;;
6089;SDS011;3073;42.660;23.316;2023-01-19T05:37:14;40.17;;;5.40;;
6089;SDS011;3073;42.660;23.316;2023-01-19T05:39:41;52.17;;;8.10;;
6089;SDS011;3073;42.660;23.316;2023-01-19T05:42:07;38.93;;;5.13;;
6089;SDS011;3073;42.660;23.316;2023-01-19T05:44:35;44.13;;;6.37;;
6089;SDS011;3073;42.660;23.316;2023-01-19T05:47:02;49.73;;;7.67;;
6089;SDS011;3073;42.660;23.316;2023-01-19T05:49:30;51.30;;;5.80;;
6089;SDS011;3073;42.660;23.316;2023-01-19T05:51:57;56.20;;;7.10;;
6089;SDS011;3073;42.660;23.316;2023-01-19T05:54:24;43.63;;;6.13;;
6089;SDS011;3073;42.660;23.316;2023-01-19T05:56:51;31.27;;;5.40;;
6089;SDS011;3073;42.660;23.316;2023-01-19T05:59:18;50.03;;;7.40;;
6089;SDS011;3073;42.660;23.316;2023-01-19T06:01:49;43.77;;;5.30;;
6089;SDS011;3073;42.660;23.316;2023-01-19T06:04:16;68.67;;;6.63;;
6089;SDS011;3073;42.660;23.316;2023-01-19T06:06:43;53.10;;;7.97;;
6089;SDS011;3073;42.660;23.316;2023-01-19T06:09:10;50.23;;;8.07;;
6089;SDS011;3073;42.660;23.316;2023-01-19T06:11:37;42.77;;;6.37;;
6089;SDS011;3073;42.660;23.316;2023-01-19T06:14:03;47.60;;;6.40;;
6089;SDS011;3073;42.660;23.316;2023-01-19T06:16:30;56.13;;;7.63;;
6089;SDS011;3073;42.660;23.316;2023-01-19T06:18:58;48.33;;;7.40;;
6089;SDS011;3073;42.660;23.316;2023-01-19T06:21:25;37.97;;;6.97;;
6089;SDS011;3073;42.660;23.316;2023-01-19T06:23:52;43.43;;;5.90;;
6089;SDS011;3073;42.660;23.316;2023-01-19T06:26:19;56.23;;;6.80;;
6089;SDS011;3073;42.660;23.316;2023-01-19T06:28:46;35.97;;;7.27;;
6089;SDS011;3073;42.660;23.316;2023-01-19T06:31:13;42.63;;;7.97;;
6089;SDS011;3073;42.660;23.316;2023-01-19T06:33:40;40.87;;;7.07;;
6089;SDS011;3073;42.660;23.316;2023-01-19T06:36:08;51.93;;;6.97;;
6089;SDS011;3073;42.660;23.316;2023-01-19T06:38:36;49.23;;;8.83;;
6089;SDS011;3073;42.660;23.316;2023-01-19T06:41:02;56.70;;;7.63;;
6089;SDS011;3073;42.660;23.316;2023-01-19T06:43:30;59.17;;;9.23;;
6089;SDS011;3073;42.660;23.316;2023-01-19T06:45:57;39.23;;;6.53;;
6089;SDS011;3073;42.660;23.316;2023-01-19T06:48:25;58.00;;;7.20;;
6089;SDS011;3073;42.660;23.316;2023-01-19T06:50:52;43.30;;;8.13;;
6089;SDS011;3073;42.660;23.316;2023-01-19T06:53:20;43.83;;;7.63;;
6089;SDS011;3073;42.660;23.316;2023-01-19T06:55:47;55.63;;;6.97;;
6089;SDS011;3073;42.660;23.316;2023-01-19T06:58:14;53.33;;;6.37;;
6089;SDS011;3073;42.660;23.316;2023-01-19T07:00:41;64.30;;;8.60;;
6089;SDS011;3073;42.660;23.316;2023-01-19T07:03:08;40.13;;;7.70;;
6089;SDS011;3073;42.660;23.316;2023-01-19T07:05:44;49.07;;;7.47;;
6089;SDS011;3073;42.660;23.316;2023-01-19T07:08:13;56.77;;;8.67;;
6089;SDS011;3073;42.660;23.316;2023-01-19T07:10:42;52.43;;;7.47;;
6089;SDS011;3073;42.660;23.316;2023-01-19T07:13:09;50.30;;;7.90;;
6089;SDS011;3073;42.660;23.316;2023-01-19T07:15:36;36.13;;;6.40;;
6089;SDS011;3073;42.660;23.316;2023-01-19T07:18:03;31.30;;;7.33;;
6089;SDS011;3073;42.660;23.316;2023-01-19T07:20:32;60.33;;;6.87;;
6089;SDS011;3073;42.660;23.316;2023-01-19T07:23:00;52.40;;;10.00;;
6089;SDS011;3073;42.660;23.316;2023-01-19T07:25:27;51.37;;;8.50;;
6089;SDS011;3073;42.660;23.316;2023-01-19T07:27:56;59.63;;;8.43;;
6089;SDS011;3073;42.660;23.316;2023-01-19T07:30:24;42.67;;;7.13;;
6089;SDS011;3073;42.660;23.316;2023-01-19T07:32:53;53.20;;;8.17;;
6089;SDS011;3073;42.660;23.316;2023-01-19T07:35:21;82.83;;;6.80;;
6089;SDS011;3073;42.660;23.316;2023-01-19T07:37:48;55.23;;;7.73;;
6089;SDS011;3073;42.660;23.316;2023-01-19T07:40:15;47.47;;;6.60;;
6089;SDS011;3073;42.660;23.316;2023-01-19T07:42:44;53.97;;;7.37;;
6089;SDS011;3073;42.660;23.316;2023-01-19T07:45:14;36.70;;;6.87;;
6089;SDS011;3073;42.660;23.316;2023-01-19T07:47:41;49.80;;;6.57;;
6089;SDS011;3073;42.660;23.316;2023-01-19T07:50:09;44.53;;;6.67;;
6089;SDS011;3073;42.660;23.316;2023-01-19T07:52:37;53.77;;;6.77;;
6089;SDS011;3073;42.660;23.316;2023-01-19T07:55:04;46.57;;;8.07;;
6089;SDS011;3073;42.660;23.316;2023-01-19T07:57:32;61.40;;;7.17;;
6089;SDS011;3073;42.660;23.316;2023-01-19T07:59:59;53.20;;;6.30;;
6089;SDS011;3073;42.660;23.316;2023-01-19T08:02:28;39.67;;;7.53;;
6089;SDS011;3073;42.660;23.316;2023-01-19T08:04:56;58.70;;;8.00;;
6089;SDS011;3073;42.660;23.316;2023-01-19T08:07:22;73.53;;;6.77;;
6089;SDS011;3073;42.660;23.316;2023-01-19T08:09:49;51.10;;;7.93;;
6089;SDS011;3073;42.660;23.316;2023-01-19T08:12:16;37.03;;;9.13;;
6089;SDS011;3073;42.660;23.316;2023-01-19T08:14:43;48.80;;;8.57;;
6089;SDS011;3073;42.660;23.316;2023-01-19T08:17:10;49.00;;;8.30;;
6089;SDS011;3073;42.660;23.316;2023-01-19T08:19:39;52.47;;;6.60;;
6089;SDS011;3073;42.660;23.316;2023-01-19T08:22:07;40.83;;;7.70;;
6089;SDS011;3073;42.660;23.316;2023-01-19T08:24:34;50.77;;;8.30;;
6089;SDS011;3073;42.660;23.316;2023-01-19T08:27:01;47.33;;;7.23;;
6089;SDS011;3073;42.660;23.316;2023-01-19T08:29:28;48.00;;;8.83;;
6089;SDS011;3073;42.660;23.316;2023-01-19T08:31:56;70.50;;;8.57;;
6089;SDS011;3073;42.660;23.316;2023-01-19T08:34:24;43.23;;;7.60;;
6089;SDS011;3073;42.660;23.316;2023-01-19T08:36:54;57.13;;;7.80;;
6089;SDS011;3073;42.660;23.316;2023-01-19T08:39:21;61.57;;;8.30;;
6089;SDS011;3073;42.660;23.316;2023-01-19T08:41:48;54.47;;;8.73;;
6089;SDS011;3073;42.660;23.316;2023-01-19T08:44:16;54.73;;;8.67;;
6089;SDS011;3073;42.660;23.316;2023-01-19T08:46:43;40.60;;;7.27;;
6089;SDS011;3073;42.660;23.316;2023-01-19T08:49:10;65.03;;;7.20;;
6089;SDS011;3073;42.660;23.316;2023-01-19T08:51:37;41.53;;;8.03;;
6089;SDS011;3073;42.660;23.316;2023-01-19T08:54:05;36.60;;;6.90;;
6089;SDS011;3073;42.660;23.316;2023-01-19T08:56:32;42.13;;;6.13;;
6089;SDS011;3073;42.660;23.316;2023-01-19T08:58:59;42.93;;;7.10;;
6089;SDS011;3073;42.660;23.316;2023-01-19T09:01:26;51.70;;;8.03;;
6089;SDS011;3073;42.660;23.316;2023-01-19T09:03:53;43.80;;;7.80;;
6089;SDS011;3073;42.660;23.316;2023-01-19T09:06:19;42.10;;;6.37;;
6089;SDS011;3073;42.660;23.316;2023-01-19T09:08:48;52.33;;;7.00;;
6089;SDS011;3073;42.660;23.316;2023-01-19T09:11:16;35.03;;;8.07;;
6089;SDS011;3073;42.660;23.316;2023-01-19T09:13:44;43.03;;;5.57;;
6089;SDS011;3073;42.660;23.316;2023-01-19T09:16:12;27.73;;;5.87;;
6089;SDS011;3073;42.660;23.316;2023-01-19T09:18:40;42.93;;;6.17;;
6089;SDS011;3073;42.660;23.316;2023-01-19T09:21:07;27.70;;;5.70;;
6089;SDS011;3073;42.660;23.316;2023-01-19T09:23:34;50.73;;;6.93;;
6089;SDS011;3073;42.660;23.316;2023-01-19T09:26:02;49.83;;;8.13;;
6089;SDS011;3073;42.660;23.316;2023-01-19T09:28:32;41.57;;;7.03;;
6089;SDS011;3073;42.660;23.316;2023-01-19T09:31:02;36.57;;;4.23;;
6089;SDS011;3073;42.660;23.316;2023-01-19T09:33:29;29.53;;;5.63;;
6089;SDS011;3073;42.660;23.316;2023-01-19T09:35:57;27.87;;;4.83;;
6089;SDS011;3073;42.660;23.316;2023-01-19T09:38:24;33.10;;;5.30;;
6089;SDS011;3073;42.660;23.316;2023-01-19T09:40:51;33.73;;;5.03;;
6089;SDS011;3073;42.660;23.316;2023-01-19T09:43:23;32.30;;;5.03;;
6089;SDS011;3073;42.660;23.316;2023-01-19T09:46:03;31.03;;;5.37;;
6089;SDS011;3073;42.660;23.316;2023-01-19T09:48:38;42.30;;;5.57;;
6089;SDS011;3073;42.660;23.316;2023-01-19T09:51:11;41.30;;;6.07;;
6089;SDS011;3073;42.660;23.316;2023-01-19T09:53:48;39.17;;;6.10;;
6089;SDS011;3073;42.660;23.316;2023-01-19T09:56:21;30.73;;;4.53;;
6089;SDS011;3073;42.660;23.316;2023-01-19T09:58:50;23.07;;;5.03;;
6089;SDS011;3073;42.660;23.316;2023-01-19T10:04:18;30.53;;;6.17;;
6089;SDS011;3073;42.660;23.316;2023-01-19T10:06:55;40.00;;;5.40;;
6089;SDS011;3073;42.660;23.316;2023-01-19T10:09:39;21.90;;;3.33;;
6089;SDS011;3073;42.660;23.316;2023-01-19T10:12:20;27.77;;;4.50;;
6089;SDS011;3073;42.660;23.316;2023-01-19T10:15:00;28.30;;;4.60;;
6089;SDS011;3073;42.660;23.316;2023-01-19T10:17:35;44.67;;;4.73;;
6089;SDS011;3073;42.660;23.316;2023-01-19T10:20:13;21.53;;;3.93;;
6089;SDS011;3073;42.660;23.316;2023-01-19T10:22:44;45.87;;;5.93;;
6089;SDS011;3073;42.660;23.316;2023-01-19T10:25:14;41.10;;;6.77;;
6089;SDS011;3073;42.660;23.316;2023-01-19T10:27:44;37.67;;;5.07;;
6089;SDS011;3073;42.660;23.316;2023-01-19T10:30:15;35.57;;;5.30;;
6089;SDS011;3073;42.660;23.316;2023-01-19T10:32:47;21.80;;;4.40;;
6089;SDS011;3073;42.660;23.316;2023-01-19T10:35:16;41.93;;;5.50;;
6089;SDS011;3073;42.660;23.316;2023-01-19T10:37:48;20.30;;;3.97;;
6089;SDS011;3073;42.660;23.316;2023-01-19T10:40:19;26.20;;;3.87;;
6089;SDS011;3073;42.660;23.316;2023-01-19T10:42:52;35.70;;;5.03;;
6089;SDS011;3073;42.660;23.316;2023-01-19T10:45:23;20.60;;;4.20;;
6089;SDS011;3073;42.660;23.316;2023-01-19T10:47:53;26.60;;;5.17;;
6089;SDS011;3073;42.660;23.316;2023-01-19T10:50:24;34.93;;;6.10;;
6089;SDS011;3073;42.660;23.316;2023-01-19T10:52:53;23.43;;;3.57;;
6089;SDS011;3073;42.660;23.316;2023-01-19T10:55:23;22.93;;;4.47;;
6089;SDS011;3073;42.660;23.316;2023-01-19T10:57:52;16.90;;;4.37;;
6089;SDS011;3073;42.660;23.316;2023-01-19T11:03:20;28.93;;;4.63;;
6089;SDS011;3073;42.660;23.316;2023-01-19T11:05:48;19.93;;;3.40;;
6089;SDS011;3073;42.660;23.316;2023-01-19T11:08:21;27.07;;;3.33;;
6089;SDS011;3073;42.660;23.316;2023-01-19T11:10:53;21.93;;;5.83;;
6089;SDS011;3073;42.660;23.316;2023-01-19T11:13:26;33.00;;;6.03;;
6089;SDS011;3073;42.660;23.316;2023-01-19T11:15:55;24.97;;;3.60;;
6089;SDS011;3073;42.660;23.316;2023-01-19T11:18:26;24.83;;;4.50;;
6089;SDS011;3073;42.660;23.316;2023-01-19T11:20:55;32.87;;;4.70;;
6089;SDS011;3073;42.660;23.316;2023-01-19T11:23:26;28.40;;;5.17;;
6089;SDS011;3073;42.660;23.316;2023-01-19T11:25:55;38.27;;;6.00;;
6089;SDS011;3073;42.660;23.316;2023-01-19T11:28:26;18.17;;;4.30;;
6089;SDS011;3073;42.660;23.316;2023-01-19T11:30:58;33.50;;;3.73;;
6089;SDS011;3073;42.660;23.316;2023-01-19T11:33:31;21.53;;;3.23;;
6089;SDS011;3073;42.660;23.316;2023-01-19T11:36:06;14.77;;;3.63;;
6089;SDS011;3073;42.660;23.316;2023-01-19T11:38:40;25.40;;;4.40;;
6089;SDS011;3073;42.660;23.316;2023-01-19T11:41:12;23.10;;;4.27;;
6089;SDS011;3073;42.660;23.316;2023-01-19T11:43:43;23.13;;;4.00;;
6089;SDS011;3073;42.660;23.316;2023-01-19T11:46:11;29.70;;;5.13;;
6089;SDS011;3073;42.660;23.316;2023-01-19T11:48:40;19.33;;;3.40;;
6089;SDS011;3073;42.660;23.316;2023-01-19T11:51:13;13.53;;;2.97;;
6089;SDS011;3073;42.660;23.316;2023-01-19T11:53:45;31.30;;;3.10;;
6089;SDS011;3073;42.660;23.316;2023-01-19T11:56:16;24.57;;;3.27;;
6089;SDS011;3073;42.660;23.316;2023-01-19T11:58:47;23.20;;;4.63;;
6089;SDS011;3073;42.660;23.316;2023-01-19T12:01:18;16.17;;;2.83;;
6089;SDS011;3073;42.660;23.316;2023-01-19T12:03:50;17.73;;;4.00;;
6089;SDS011;3073;42.660;23.316;2023-01-19T12:06:23;24.70;;;3.33;;
6089;SDS011;3073;42.660;23.316;2023-01-19T12:08:53;17.80;;;3.53;;
6089;SDS011;3073;42.660;23.316;2023-01-19T12:11:24;21.30;;;3.60;;
6089;SDS011;3073;42.660;23.316;2023-01-19T12:13:56;32.03;;;3.13;;
6089;SDS011;3073;42.660;23.316;2023-01-19T12:16:26;21.43;;;3.27;;
6089;SDS011;3073;42.660;23.316;2023-01-19T12:18:55;17.27;;;2.90;;
6089;SDS011;3073;42.660;23.316;2023-01-19T12:21:26;17.50;;;3.40;;
6089;SDS011;3073;42.660;23.316;2023-01-19T12:23:58;26.47;;;3.63;;
6089;SDS011;3073;42.660;23.316;2023-01-19T12:26:37;20.63;;;2.73;;
6089;SDS011;3073;42.660;23.316;2023-01-19T12:29:14;20.63;;;3.83;;
6089;SDS011;3073;42.660;23.316;2023-01-19T12:31:49;16.67;;;3.60;;
6089;SDS011;3073;42.660;23.316;2023-01-19T12:34:52;19.17;;;3.03;;
6089;SDS011;3073;42.660;23.316;2023-01-19T12:37:36;18.53;;;3.30;;
6089;SDS011;3073;42.660;23.316;2023-01-19T12:40:20;14.90;;;3.53;;
6089;SDS011;3073;42.660;23.316;2023-01-19T12:42:53;16.63;;;3.30;;
6089;SDS011;3073;42.660;23.316;2023-01-19T12:45:24;14.03;;;3.20;;
6089;SDS011;3073;42.660;23.316;2023-01-19T12:47:56;21.53;;;3.40;;
6089;SDS011;3073;42.660;23.316;2023-01-19T12:50:25;14.87;;;2.87;;
6089;SDS011;3073;42.660;23.316;2023-01-19T12:52:54;11.13;;;4.13;;
6089;SDS011;3073;42.660;23.316;2023-01-19T12:55:23;15.57;;;4.40;;
6089;SDS011;3073;42.660;23.316;2023-01-19T12:57:57;16.03;;;3.77;;
6089;SDS011;3073;42.660;23.316;2023-01-19T13:00:28;20.43;;;4.23;;
6089;SDS011;3073;42.660;23.316;2023-01-19T13:03:01;14.63;;;2.83;;
6089;SDS011;3073;42.660;23.316;2023-01-19T13:08:26;15.23;;;3.97;;
6089;SDS011;3073;42.660;23.316;2023-01-19T13:16:57;21.63;;;3.43;;
6089;SDS011;3073;42.660;23.316;2023-01-19T13:19:43;10.63;;;2.77;;
6089;SDS011;3073;42.660;23.316;2023-01-19T13:25:40;11.23;;;2.50;;
6089;SDS011;3073;42.660;23.316;2023-01-19T13:28:11;15.40;;;3.40;;
6089;SDS011;3073;42.660;23.316;2023-01-19T13:30:47;16.47;;;2.70;;
6089;SDS011;3073;42.660;23.316;2023-01-19T13:33:20;13.47;;;2.33;;
6089;SDS011;3073;42.660;23.316;2023-01-19T13:35:50;8.33;;;2.20;;
6089;SDS011;3073;42.660;23.316;2023-01-19T13:38:22;14.00;;;2.63;;
6089;SDS011;3073;42.660;23.316;2023-01-19T13:40:53;22.63;;;3.47;;
6089;SDS011;3073;42.660;23.316;2023-01-19T13:43:23;12.10;;;2.77;;
6089;SDS011;3073;42.660;23.316;2023-01-19T13:45:53;17.30;;;3.50;;
6089;SDS011;3073;42.660;23.316;2023-01-19T13:48:21;8.00;;;1.90;;
6089;SDS011;3073;42.660;23.316;2023-01-19T13:50:57;18.57;;;1.90;;
6089;SDS011;3073;42.660;23.316;2023-01-19T13:53:27;15.63;;;2.90;;
6089;SDS011;3073;42.660;23.316;2023-01-19T13:56:04;12.47;;;3.83;;
6089;SDS011;3073;42.660;23.316;2023-01-19T13:58:33;11.60;;;2.63;;
6089;SDS011;3073;42.660;23.316;2023-01-19T14:01:00;14.80;;;2.60;;
6089;SDS011;3073;42.660;23.316;2023-01-19T14:03:27;17.03;;;2.40;;
6089;SDS011;3073;42.660;23.316;2023-01-19T14:05:54;9.07;;;1.60;;
6089;SDS011;3073;42.660;23.316;2023-01-19T14:08:21;9.80;;;2.67;;
6089;SDS011;3073;42.660;23.316;2023-01-19T14:10:59;16.97;;;2.90;;
6089;SDS011;3073;42.660;23.316;2023-01-19T14:13:27;10.20;;;2.53;;
6089;SDS011;3073;42.660;23.316;2023-01-19T14:15:56;12.53;;;2.47;;
6089;SDS011;3073;42.660;23.316;2023-01-19T14:18:27;11.97;;;3.00;;
6089;SDS011;3073;42.660;23.316;2023-01-19T14:20:57;5.90;;;2.13;;
6089;SDS011;3073;42.660;23.316;2023-01-19T14:23:37;20.37;;;2.50;;
6089;SDS011;3073;42.660;23.316;2023-01-19T14:29:18;9.13;;;2.73;;
6089;SDS011;3073;42.660;23.316;2023-01-19T14:31:50;21.50;;;4.70;;
6089;SDS011;3073;42.660;23.316;2023-01-19T14:34:27;13.30;;;3.57;;
6089;SDS011;3073;42.660;23.316;2023-01-19T14:36:55;10.43;;;2.60;;
6089;SDS011;3073;42.660;23.316;2023-01-19T14:39:24;14.80;;;2.33;;
6089;SDS011;3073;42.660;23.316;2023-01-19T14:41:53;21.30;;;3.60;;
6089;SDS011;3073;42.660;23.316;2023-01-19T14:44:25;12.03;;;2.30;;
6089;SDS011;3073;42.660;23.316;2023-01-19T14:46:55;13.43;;;2.87;;
6089;SDS011;3073;42.660;23.316;2023-01-19T14:49:27;10.20;;;2.70;;
6089;SDS011;3073;42.660;23.316;2023-01-19T14:51:56;11.00;;;3.73;;
6089;SDS011;3073;42.660;23.316;2023-01-19T14:54:26;18.17;;;3.43;;
6089;SDS011;3073;42.660;23.316;2023-01-19T14:56:58;18.67;;;3.07;;
6089;SDS011;3073;42.660;23.316;2023-01-19T14:59:24;13.97;;;3.20;;
6089;SDS011;3073;42.660;23.316;2023-01-19T15:01:51;17.27;;;4.10;;
6089;SDS011;3073;42.660;23.316;2023-01-19T15:04:18;9.77;;;2.33;;
6089;SDS011;3073;42.660;23.316;2023-01-19T15:06:45;13.80;;;3.53;;
6089;SDS011;3073;42.660;23.316;2023-01-19T15:09:12;9.40;;;3.10;;
6089;SDS011;3073;42.660;23.316;2023-01-19T15:11:40;19.37;;;2.80;;
6089;SDS011;3073;42.660;23.316;2023-01-19T15:14:10;8.83;;;2.00;;
6089;SDS011;3073;42.660;23.316;2023-01-19T15:16:42;10.37;;;3.37;;
6089;SDS011;3073;42.660;23.316;2023-01-19T15:19:10;10.70;;;3.53;;
6089;SDS011;3073;42.660;23.316;2023-01-19T15:21:38;12.67;;;3.00;;
6089;SDS011;3073;42.660;23.316;2023-01-19T15:24:07;11.13;;;2.47;;
6089;SDS011;3073;42.660;23.316;2023-01-19T15:26:35;8.67;;;2.73;;